sensor_id;sensor_type;location;lat;lon;timestamp;pressure;altitude;pressure_sealevel;temperature;humidity
52469;BME280;38381;53.688;10.776;2022-09-24T00:00:16;100995.88;;;12.21;77.57
52469;BME280;38381;53.688;10.776;2022-09-24T00:05:16;100994.97;;;12.16;77.34
52469;BME280;38381;53.688;10.776;2022-09-24T00:10:16;100997.56;;;12.11;78.24
52469;BME280;38381;53.688;10.776;2022-09-24T00:15:16;100997.56;;;12.08;78.25
52469;BME280;38381;53.688;10.776;2022-09-24T00:20:17;100989.75;;;12.02;79.11
52469;BME280;38381;53.688;10.776;2022-09-24T00:25:17;100985.41;;;12.01;78.61
52469;BME280;38381;53.688;10.776;2022-09-24T00:30:37;100979.34;;;12.00;78.77
52469;BME280;38381;53.688;10.776;2022-09-24T00:35:38;100967.19;;;11.99;78.89
52469;BME280;38381;53.688;10.776;2022-09-24T00:40:41;100970.69;;;12.06;78.77
52469;BME280;38381;53.688;10.776;2022-09-24T00:45:41;100969.81;;;12.07;79.46
52469;BME280;38381;53.688;10.776;2022-09-24T00:50:41;100966.38;;;12.08;79.32
52469;BME280;38381;53.688;10.776;2022-09-24T00:55:43;100962.88;;;12.07;79.52
52469;BME280;38381;53.688;10.776;2022-09-24T01:00:45;100960.28;;;12.03;79.88
52469;BME280;38381;53.688;10.776;2022-09-24T01:05:46;100956.78;;;11.99;79.58
52469;BME280;38381;53.688;10.776;2022-09-24T01:11:06;100962.84;;;11.95;79.76
52469;BME280;38381;53.688;10.776;2022-09-24T01:16:21;100953.34;;;12.02;79.76
52469;BME280;38381;53.688;10.776;2022-09-24T01:21:51;100947.25;;;11.97;79.47
52469;BME280;38381;53.688;10.776;2022-09-24T01:32:19;100944.66;;;11.97;79.73
52469;BME280;38381;53.688;10.776;2022-09-24T01:37:22;100941.19;;;11.95;79.87
52469;BME280;38381;53.688;10.776;2022-09-24T01:42:26;100934.25;;;11.97;79.74
52469;BME280;38381;53.688;10.776;2022-09-24T01:47:31;100934.28;;;11.94;79.99
52469;BME280;38381;53.688;10.776;2022-09-24T01:52:38;100932.50;;;11.91;79.93
52469;BME280;38381;53.688;10.776;2022-09-24T01:57:49;100928.13;;;11.87;79.71
52469;BME280;38381;53.688;10.776;2022-09-24T02:03:14;100928.13;;;11.87;79.61
52469;BME280;38381;53.688;10.776;2022-09-24T02:08:19;100925.50;;;11.82;79.84
52469;BME280;38381;53.688;10.776;2022-09-24T02:13:24;100924.66;;;11.83;80.15
52469;BME280;38381;53.688;10.776;2022-09-24T02:18:30;100930.78;;;11.88;80.29
52469;BME280;38381;53.688;10.776;2022-09-24T02:23:34;100922.13;;;11.90;79.88
52469;BME280;38381;53.688;10.776;2022-09-24T02:28:36;100925.56;;;11.88;79.53
52469;BME280;38381;53.688;10.776;2022-09-24T02:33:40;100924.66;;;11.83;79.75
52469;BME280;38381;53.688;10.776;2022-09-24T02:39:00;100925.50;;;11.76;80.14
52469;BME280;38381;53.688;10.776;2022-09-24T02:44:00;100928.97;;;11.75;79.98
52469;BME280;38381;53.688;10.776;2022-09-24T02:49:01;100928.13;;;11.79;80.02
52469;BME280;38381;53.688;10.776;2022-09-24T02:54:02;100933.25;;;11.70;79.81
52469;BME280;38381;53.688;10.776;2022-09-24T02:59:02;100930.66;;;11.67;80.41
52469;BME280;38381;53.688;10.776;2022-09-24T03:04:03;100924.56;;;11.63;80.74
52469;BME280;38381;53.688;10.776;2022-09-24T03:09:04;100925.41;;;11.59;81.09
52469;BME280;38381;53.688;10.776;2022-09-24T03:14:04;100923.69;;;11.61;80.46
52469;BME280;38381;53.688;10.776;2022-09-24T03:19:05;100933.19;;;11.58;80.93
52469;BME280;38381;53.688;10.776;2022-09-24T03:24:05;100931.41;;;11.47;81.24
52469;BME280;38381;53.688;10.776;2022-09-24T03:29:05;100936.66;;;11.55;81.74
52469;BME280;38381;53.688;10.776;2022-09-24T03:34:06;100928.81;;;11.47;82.03
52469;BME280;38381;53.688;10.776;2022-09-24T03:39:06;100920.94;;;11.34;82.47
52469;BME280;38381;53.688;10.776;2022-09-24T03:44:06;100924.44;;;11.37;82.73
52469;BME280;38381;53.688;10.776;2022-09-24T03:49:06;100920.94;;;11.34;82.79
52469;BME280;38381;53.688;10.776;2022-09-24T03:54:06;100924.41;;;11.31;82.70
52469;BME280;38381;53.688;10.776;2022-09-24T03:59:13;100921.84;;;11.34;82.99
52469;BME280;38381;53.688;10.776;2022-09-24T04:04:13;100920.06;;;11.28;83.23
52469;BME280;38381;53.688;10.776;2022-09-24T04:09:15;100918.31;;;11.24;83.59
52469;BME280;38381;53.688;10.776;2022-09-24T04:14:15;100914.03;;;11.37;83.03
52469;BME280;38381;53.688;10.776;2022-09-24T04:19:15;100914.00;;;11.28;83.26
52469;BME280;38381;53.688;10.776;2022-09-24T04:24:15;100913.13;;;11.29;83.56
52469;BME280;38381;53.688;10.776;2022-09-24T04:29:16;100917.44;;;11.25;84.15
52469;BME280;38381;53.688;10.776;2022-09-24T04:34:16;100910.47;;;11.18;84.35
52469;BME280;38381;53.688;10.776;2022-09-24T04:39:17;100907.91;;;11.20;84.69
52469;BME280;38381;53.688;10.776;2022-09-24T04:44:17;100913.94;;;11.23;84.13
52469;BME280;38381;53.688;10.776;2022-09-24T04:49:17;100912.25;;;11.27;84.47
52469;BME280;38381;53.688;10.776;2022-09-24T04:54:17;100914.78;;;11.19;85.07
52469;BME280;38381;53.688;10.776;2022-09-24T04:59:17;100914.91;;;11.35;84.43
52469;BME280;38381;53.688;10.776;2022-09-24T05:04:18;100921.81;;;11.33;84.21
52469;BME280;38381;53.688;10.776;2022-09-24T05:09:18;100915.78;;;11.37;84.62
52469;BME280;38381;53.688;10.776;2022-09-24T05:14:19;100918.38;;;11.40;83.93
52469;BME280;38381;53.688;10.776;2022-09-24T05:19:19;100919.28;;;11.40;84.39
52469;BME280;38381;53.688;10.776;2022-09-24T05:24:19;100914.97;;;11.47;83.38
52469;BME280;38381;53.688;10.776;2022-09-24T05:29:19;100911.50;;;11.45;84.02
52469;BME280;38381;53.688;10.776;2022-09-24T05:34:19;100914.97;;;11.50;84.33
52469;BME280;38381;53.688;10.776;2022-09-24T05:39:20;100910.66;;;11.52;84.02
52469;BME280;38381;53.688;10.776;2022-09-24T05:44:20;100916.72;;;11.54;84.29
52469;BME280;38381;53.688;10.776;2022-09-24T05:49:21;100914.16;;;11.57;83.65
52469;BME280;38381;53.688;10.776;2022-09-24T05:54:22;100912.47;;;11.67;83.83
52469;BME280;38381;53.688;10.776;2022-09-24T05:59:22;100904.66;;;11.64;83.88
52469;BME280;38381;53.688;10.776;2022-09-24T06:04:23;100917.66;;;11.68;84.26
52469;BME280;38381;53.688;10.776;2022-09-24T06:09:24;100914.25;;;11.77;83.78
52469;BME280;38381;53.688;10.776;2022-09-24T06:14:24;100927.25;;;11.83;83.74
52469;BME280;38381;53.688;10.776;2022-09-24T06:19:24;100929.84;;;11.77;83.90
52469;BME280;38381;53.688;10.776;2022-09-24T06:24:24;100923.78;;;11.83;83.39
52469;BME280;38381;53.688;10.776;2022-09-24T06:29:25;100925.50;;;11.82;84.14
52469;BME280;38381;53.688;10.776;2022-09-24T06:34:26;100928.13;;;11.82;84.80
52469;BME280;38381;53.688;10.776;2022-09-24T06:39:26;100934.28;;;11.98;83.93
52469;BME280;38381;53.688;10.776;2022-09-24T06:44:27;100927.34;;;12.00;84.24
52469;BME280;38381;53.688;10.776;2022-09-24T06:49:27;100932.53;;;11.96;85.19
52469;BME280;38381;53.688;10.776;2022-09-24T06:54:28;100933.41;;;11.92;85.15
52469;BME280;38381;53.688;10.776;2022-09-24T06:59:28;100939.47;;;11.98;85.39
52469;BME280;38381;53.688;10.776;2022-09-24T07:04:28;100930.81;;;12.01;85.70
52469;BME280;38381;53.688;10.776;2022-09-24T07:09:29;100934.25;;;11.92;86.93
52469;BME280;38381;53.688;10.776;2022-09-24T07:14:29;100943.91;;;12.32;85.38
52469;BME280;38381;53.688;10.776;2022-09-24T07:19:29;100936.94;;;12.18;86.09
52469;BME280;38381;53.688;10.776;2022-09-24T07:24:29;100941.31;;;12.38;85.11
52469;BME280;38381;53.688;10.776;2022-09-24T07:29:30;100940.47;;;12.59;84.20
52469;BME280;38381;53.688;10.776;2022-09-24T07:34:31;100942.22;;;12.71;84.19
52469;BME280;38381;53.688;10.776;2022-09-24T07:39:36;100945.69;;;12.68;84.14
52469;BME280;38381;53.688;10.776;2022-09-24T07:44:37;100945.69;;;12.73;84.35
52469;BME280;38381;53.688;10.776;2022-09-24T07:49:37;100952.63;;;12.67;84.58
52469;BME280;38381;53.688;10.776;2022-09-24T07:54:38;100947.44;;;12.74;84.66
52469;BME280;38381;53.688;10.776;2022-09-24T07:59:38;100948.28;;;12.73;84.50
52469;BME280;38381;53.688;10.776;2022-09-24T08:04:39;100952.63;;;12.89;83.82
52469;BME280;38381;53.688;10.776;2022-09-24T08:09:39;100952.63;;;12.91;83.58
52469;BME280;38381;53.688;10.776;2022-09-24T08:14:40;100957.81;;;13.20;82.71
52469;BME280;38381;53.688;10.776;2022-09-24T08:19:42;100954.34;;;13.05;82.79
52469;BME280;38381;53.688;10.776;2022-09-24T08:24:45;100964.75;;;13.18;82.83
52469;BME280;38381;53.688;10.776;2022-09-24T08:29:45;100957.84;;;13.01;83.47
52469;BME280;38381;53.688;10.776;2022-09-24T08:34:46;100958.69;;;13.17;83.33
52469;BME280;38381;53.688;10.776;2022-09-24T08:39:46;100961.31;;;13.31;82.45
52469;BME280;38381;53.688;10.776;2022-09-24T08:44:47;100955.22;;;13.37;82.15
52469;BME280;38381;53.688;10.776;2022-09-24T08:50:20;100956.09;;;13.43;82.25
52469;BME280;38381;53.688;10.776;2022-09-24T08:55:37;100961.25;;;13.59;81.42
52469;BME280;38381;53.688;10.776;2022-09-24T09:00:44;100963.81;;;13.73;80.65
52469;BME280;38381;53.688;10.776;2022-09-24T09:11:31;100967.19;;;13.98;79.60
52469;BME280;38381;53.688;10.776;2022-09-24T09:16:45;100973.16;;;14.23;78.20
52469;BME280;38381;53.688;10.776;2022-09-24T09:21:56;100987.94;;;14.24;77.95
52469;BME280;38381;53.688;10.776;2022-09-24T09:26:59;100987.13;;;14.08;78.42
52469;BME280;38381;53.688;10.776;2022-09-24T09:37:39;100980.97;;;14.27;77.81
52469;BME280;38381;53.688;10.776;2022-09-24T09:42:41;100983.69;;;14.09;79.48
52469;BME280;38381;53.688;10.776;2022-09-24T09:47:52;100979.28;;;14.13;80.37
52469;BME280;38381;53.688;10.776;2022-09-24T09:52:53;100986.31;;;14.00;80.96
52469;BME280;38381;53.688;10.776;2022-09-24T09:58:09;100986.38;;;13.74;83.14
52469;BME280;38381;53.688;10.776;2022-09-24T10:03:28;100985.47;;;13.95;82.41
52469;BME280;38381;53.688;10.776;2022-09-24T10:08:29;100985.47;;;13.92;81.94
52469;BME280;38381;53.688;10.776;2022-09-24T10:13:30;100983.81;;;13.72;82.14
52469;BME280;38381;53.688;10.776;2022-09-24T10:18:35;100989.03;;;13.57;83.66
52469;BME280;38381;53.688;10.776;2022-09-24T10:23:39;100995.16;;;13.34;85.73
52469;BME280;38381;53.688;10.776;2022-09-24T10:28:48;100987.34;;;13.43;86.38
52469;BME280;38381;53.688;10.776;2022-09-24T10:34:21;100985.59;;;13.52;86.85
52469;BME280;38381;53.688;10.776;2022-09-24T10:39:23;100984.75;;;13.34;87.58
52469;BME280;38381;53.688;10.776;2022-09-24T10:44:31;100973.44;;;13.46;87.49
52469;BME280;38381;53.688;10.776;2022-09-24T10:49:56;100976.03;;;13.24;88.82
52469;BME280;38381;53.688;10.776;2022-09-24T11:00:45;100985.59;;;12.95;90.20
52469;BME280;38381;53.688;10.776;2022-09-24T11:05:52;100989.94;;;12.91;91.93
52469;BME280;38381;53.688;10.776;2022-09-24T11:16:19;100984.72;;;12.85;92.66
52469;BME280;38381;53.688;10.776;2022-09-24T11:21:30;100983.00;;;12.96;91.88
52469;BME280;38381;53.688;10.776;2022-09-24T11:32:08;100982.16;;;13.06;91.31
52469;BME280;38381;53.688;10.776;2022-09-24T11:42:52;100980.41;;;13.13;90.57
52469;BME280;38381;53.688;10.776;2022-09-24T11:53:38;100985.59;;;13.12;91.76
52469;BME280;38381;53.688;10.776;2022-09-24T11:58:43;100983.88;;;13.32;90.78
52469;BME280;38381;53.688;10.776;2022-09-24T12:03:51;100983.00;;;13.12;91.68
52469;BME280;38381;53.688;10.776;2022-09-24T12:09:06;100984.75;;;13.05;92.15
52469;BME280;38381;53.688;10.776;2022-09-24T12:14:23;100991.69;;;12.97;92.76
52469;BME280;38381;53.688;10.776;2022-09-24T12:19:29;100982.13;;;12.97;92.93
52469;BME280;38381;53.688;10.776;2022-09-24T12:24:37;100989.06;;;12.89;93.51
52469;BME280;38381;53.688;10.776;2022-09-24T12:29:59;100989.94;;;13.08;93.55
52469;BME280;38381;53.688;10.776;2022-09-24T12:41:01;100992.53;;;12.97;92.66
52469;BME280;38381;53.688;10.776;2022-09-24T12:46:15;100989.06;;;12.77;93.43
52469;BME280;38381;53.688;10.776;2022-09-24T12:51:17;100989.97;;;12.88;93.34
52469;BME280;38381;53.688;10.776;2022-09-24T12:56:24;100982.97;;;12.79;94.42
52469;BME280;38381;53.688;10.776;2022-09-24T13:01:30;100975.19;;;12.76;94.65
52469;BME280;38381;53.688;10.776;2022-09-24T13:06:36;100976.94;;;12.91;93.94
52469;BME280;38381;53.688;10.776;2022-09-24T13:11:36;100971.72;;;12.86;93.74
52469;BME280;38381;53.688;10.776;2022-09-24T13:16:38;100976.06;;;12.74;94.45
52469;BME280;38381;53.688;10.776;2022-09-24T13:21:41;100976.94;;;12.70;95.19
52469;BME280;38381;53.688;10.776;2022-09-24T13:26:41;100978.66;;;12.78;94.42
52469;BME280;38381;53.688;10.776;2022-09-24T13:31:45;100971.72;;;12.82;94.95
52469;BME280;38381;53.688;10.776;2022-09-24T13:37:00;100973.47;;;12.92;93.80
52469;BME280;38381;53.688;10.776;2022-09-24T13:42:16;100980.38;;;12.81;95.09
52469;BME280;38381;53.688;10.776;2022-09-24T13:47:31;100966.50;;;12.73;95.29
52469;BME280;38381;53.688;10.776;2022-09-24T13:52:41;100963.06;;;12.84;94.68
52469;BME280;38381;53.688;10.776;2022-09-24T13:57:44;100966.53;;;12.88;95.23
52469;BME280;38381;53.688;10.776;2022-09-24T14:03:03;100965.63;;;13.00;93.94
52469;BME280;38381;53.688;10.776;2022-09-24T14:08:06;100963.03;;;12.95;94.51
52469;BME280;38381;53.688;10.776;2022-09-24T14:18:13;100970.84;;;12.95;95.06
52469;BME280;38381;53.688;10.776;2022-09-24T14:23:18;100959.56;;;13.15;94.32
52469;BME280;38381;53.688;10.776;2022-09-24T14:28:21;100959.56;;;13.10;95.58
52469;BME280;38381;53.688;10.776;2022-09-24T14:33:25;100956.09;;;13.19;94.49
52469;BME280;38381;53.688;10.776;2022-09-24T14:38:31;100957.84;;;13.17;94.12
52469;BME280;38381;53.688;10.776;2022-09-24T14:48:41;100955.22;;;13.15;93.76
52469;BME280;38381;53.688;10.776;2022-09-24T14:53:43;100943.94;;;13.27;92.84
52469;BME280;38381;53.688;10.776;2022-09-24T14:58:43;100941.31;;;13.10;93.26
52469;BME280;38381;53.688;10.776;2022-09-24T15:03:48;100941.34;;;13.19;93.42
52469;BME280;38381;53.688;10.776;2022-09-24T15:08:57;100944.81;;;12.84;95.39
52469;BME280;38381;53.688;10.776;2022-09-24T15:14:12;100946.53;;;12.85;95.25
52469;BME280;38381;53.688;10.776;2022-09-24T15:19:21;100943.97;;;13.08;93.79
52469;BME280;38381;53.688;10.776;2022-09-24T15:24:22;100943.94;;;12.99;94.94
52469;BME280;38381;53.688;10.776;2022-09-24T15:29:23;100949.16;;;12.99;95.34
52469;BME280;38381;53.688;10.776;2022-09-24T15:34:24;100935.28;;;13.03;95.11
52469;BME280;38381;53.688;10.776;2022-09-24T15:39:26;100937.88;;;13.03;95.49
52469;BME280;38381;53.688;10.776;2022-09-24T15:44:27;100940.50;;;12.86;96.15
52469;BME280;38381;53.688;10.776;2022-09-24T15:49:27;100943.09;;;12.93;95.97
52469;BME280;38381;53.688;10.776;2022-09-24T15:54:27;100933.53;;;12.87;96.06
52469;BME280;38381;53.688;10.776;2022-09-24T15:59:27;100933.53;;;12.99;95.54
52469;BME280;38381;53.688;10.776;2022-09-24T16:04:28;100938.72;;;12.92;95.93
52469;BME280;38381;53.688;10.776;2022-09-24T16:09:28;100941.34;;;12.99;95.42
52469;BME280;38381;53.688;10.776;2022-09-24T16:14:28;100944.84;;;12.92;95.63
52469;BME280;38381;53.688;10.776;2022-09-24T16:19:29;100944.84;;;12.98;95.15
52469;BME280;38381;53.688;10.776;2022-09-24T16:24:33;100949.16;;;12.84;94.82
52469;BME280;38381;53.688;10.776;2022-09-24T16:29:33;100956.97;;;12.87;94.93
52469;BME280;38381;53.688;10.776;2022-09-24T16:34:34;100951.78;;;12.95;94.43
52469;BME280;38381;53.688;10.776;2022-09-24T16:39:35;100956.09;;;12.91;94.50
52469;BME280;38381;53.688;10.776;2022-09-24T16:44:35;100949.16;;;12.84;95.38
52469;BME280;38381;53.688;10.776;2022-09-24T16:49:35;100945.69;;;12.94;94.93
52469;BME280;38381;53.688;10.776;2022-09-24T16:54:36;100945.69;;;12.96;94.43
52469;BME280;38381;53.688;10.776;2022-09-24T16:59:36;100944.84;;;12.92;94.55
52469;BME280;38381;53.688;10.776;2022-09-24T17:04:36;100951.78;;;12.96;94.38
52469;BME280;38381;53.688;10.776;2022-09-24T17:09:36;100949.16;;;12.99;94.12
52469;BME280;38381;53.688;10.776;2022-09-24T17:14:55;100956.13;;;13.00;94.05
52469;BME280;38381;53.688;10.776;2022-09-24T17:19:56;100948.28;;;12.99;93.77
52469;BME280;38381;53.688;10.776;2022-09-24T17:24:57;100949.16;;;12.93;94.67
52469;BME280;38381;53.688;10.776;2022-09-24T17:29:57;100948.28;;;12.97;94.28
52469;BME280;38381;53.688;10.776;2022-09-24T17:34:57;100950.91;;;13.00;93.93
52469;BME280;38381;53.688;10.776;2022-09-24T17:39:58;100943.09;;;12.85;94.86
52469;BME280;38381;53.688;10.776;2022-09-24T17:44:58;100945.69;;;12.97;94.50
52469;BME280;38381;53.688;10.776;2022-09-24T17:49:58;100946.56;;;12.64;96.73
52469;BME280;38381;53.688;10.776;2022-09-24T17:54:59;100943.94;;;12.67;97.14
52469;BME280;38381;53.688;10.776;2022-09-24T17:59:59;100957.84;;;12.66;97.05
52469;BME280;38381;53.688;10.776;2022-09-24T18:04:59;100947.41;;;12.64;97.32
52469;BME280;38381;53.688;10.776;2022-09-24T18:09:59;100951.75;;;12.64;97.54
52469;BME280;38381;53.688;10.776;2022-09-24T18:15:00;100957.84;;;12.67;96.62
52469;BME280;38381;53.688;10.776;2022-09-24T18:20:00;100956.09;;;12.63;97.34
52469;BME280;38381;53.688;10.776;2022-09-24T18:25:00;100971.72;;;12.73;96.91
52469;BME280;38381;53.688;10.776;2022-09-24T18:30:06;100965.63;;;12.71;96.70
52469;BME280;38381;53.688;10.776;2022-09-24T18:35:10;100963.06;;;12.74;96.21
52469;BME280;38381;53.688;10.776;2022-09-24T18:40:10;100973.44;;;12.71;96.61
52469;BME280;38381;53.688;10.776;2022-09-24T18:45:11;100970.84;;;12.74;95.87
52469;BME280;38381;53.688;10.776;2022-09-24T18:50:11;100976.91;;;12.68;96.32
52469;BME280;38381;53.688;10.776;2022-09-24T18:55:11;100976.03;;;12.75;95.42
52469;BME280;38381;53.688;10.776;2022-09-24T19:00:12;100975.19;;;12.79;94.56
52469;BME280;38381;53.688;10.776;2022-09-24T19:05:32;100985.59;;;12.81;94.24
52469;BME280;38381;53.688;10.776;2022-09-24T19:10:33;100995.16;;;12.88;93.74
52469;BME280;38381;53.688;10.776;2022-09-24T19:15:35;100989.06;;;12.95;93.21
52469;BME280;38381;53.688;10.776;2022-09-24T19:20:37;100995.16;;;12.99;92.65
52469;BME280;38381;53.688;10.776;2022-09-24T19:25:39;100989.94;;;12.97;92.14
52469;BME280;38381;53.688;10.776;2022-09-24T19:30:41;100985.63;;;12.96;92.40
52469;BME280;38381;53.688;10.776;2022-09-24T19:35:46;100992.53;;;13.02;92.30
52469;BME280;38381;53.688;10.776;2022-09-24T19:41:01;100991.69;;;12.97;92.65
52469;BME280;38381;53.688;10.776;2022-09-24T19:46:05;100982.13;;;12.89;93.87
52469;BME280;38381;53.688;10.776;2022-09-24T19:51:09;100987.34;;;12.85;93.85
52469;BME280;38381;53.688;10.776;2022-09-24T19:56:09;100992.53;;;12.77;94.83
52469;BME280;38381;53.688;10.776;2022-09-24T20:01:10;100980.38;;;12.70;95.19
52469;BME280;38381;53.688;10.776;2022-09-24T20:06:13;100978.66;;;12.67;95.32
52469;BME280;38381;53.688;10.776;2022-09-24T20:11:16;100975.19;;;12.59;95.40
52469;BME280;38381;53.688;10.776;2022-09-24T20:16:22;100971.69;;;12.45;96.33
52469;BME280;38381;53.688;10.776;2022-09-24T20:21:26;100973.41;;;12.46;96.56
52469;BME280;38381;53.688;10.776;2022-09-24T20:26:27;100978.66;;;12.61;95.50
52469;BME280;38381;53.688;10.776;2022-09-24T20:31:48;100969.97;;;12.62;95.30
52469;BME280;38381;53.688;10.776;2022-09-24T20:36:52;100970.84;;;12.75;94.40
52469;BME280;38381;53.688;10.776;2022-09-24T20:41:53;100963.03;;;12.77;94.13
52469;BME280;38381;53.688;10.776;2022-09-24T20:46:53;100966.53;;;12.82;93.38
52469;BME280;38381;53.688;10.776;2022-09-24T20:51:54;100963.94;;;12.82;92.97
52469;BME280;38381;53.688;10.776;2022-09-24T20:56:55;100971.72;;;12.82;93.13
52469;BME280;38381;53.688;10.776;2022-09-24T21:01:55;100969.13;;;12.82;92.98
52469;BME280;38381;53.688;10.776;2022-09-24T21:06:56;100971.72;;;12.82;93.13
52469;BME280;38381;53.688;10.776;2022-09-24T21:11:56;100969.09;;;12.83;92.86
52469;BME280;38381;53.688;10.776;2022-09-24T21:16:56;100967.38;;;12.85;92.59
52469;BME280;38381;53.688;10.776;2022-09-24T21:21:56;100966.53;;;12.82;92.89
52469;BME280;38381;53.688;10.776;2022-09-24T21:26:58;100969.13;;;12.80;92.62
52469;BME280;38381;53.688;10.776;2022-09-24T21:31:59;100962.19;;;12.78;92.59
52469;BME280;38381;53.688;10.776;2022-09-24T21:37:02;100958.72;;;12.80;92.23
52469;BME280;38381;53.688;10.776;2022-09-24T21:42:03;100957.84;;;12.74;92.26
52469;BME280;38381;53.688;10.776;2022-09-24T21:47:04;100965.66;;;12.67;92.85
52469;BME280;38381;53.688;10.776;2022-09-24T21:52:04;100969.09;;;12.65;92.53
52469;BME280;38381;53.688;10.776;2022-09-24T21:57:05;100963.88;;;12.59;92.14
52469;BME280;38381;53.688;10.776;2022-09-24T22:02:05;100968.22;;;12.55;92.35
52469;BME280;38381;53.688;10.776;2022-09-24T22:07:06;100964.75;;;12.56;92.75
52469;BME280;38381;53.688;10.776;2022-09-24T22:12:07;100969.97;;;12.53;92.58
52469;BME280;38381;53.688;10.776;2022-09-24T22:17:08;100965.59;;;12.51;92.75
52469;BME280;38381;53.688;10.776;2022-09-24T22:22:09;100966.50;;;12.51;92.47
52469;BME280;38381;53.688;10.776;2022-09-24T22:27:09;100962.13;;;12.50;92.16
52469;BME280;38381;53.688;10.776;2022-09-24T22:32:09;100955.19;;;12.51;91.88
52469;BME280;38381;53.688;10.776;2022-09-24T22:37:10;100953.47;;;12.48;92.26
52469;BME280;38381;53.688;10.776;2022-09-24T22:42:13;100953.47;;;12.48;92.07
52469;BME280;38381;53.688;10.776;2022-09-24T22:47:13;100955.22;;;12.49;92.18
52469;BME280;38381;53.688;10.776;2022-09-24T22:52:14;100960.41;;;12.49;91.83
52469;BME280;38381;53.688;10.776;2022-09-24T22:57:14;100956.94;;;12.50;92.43
52469;BME280;38381;53.688;10.776;2022-09-24T23:02:14;100962.13;;;12.50;92.88
52469;BME280;38381;53.688;10.776;2022-09-24T23:07:14;100952.59;;;12.52;92.72
52469;BME280;38381;53.688;10.776;2022-09-24T23:12:15;100952.59;;;12.52;93.19
52469;BME280;38381;53.688;10.776;2022-09-24T23:17:16;100945.69;;;12.56;92.90
52469;BME280;38381;53.688;10.776;2022-09-24T23:22:20;100933.53;;;12.58;93.08
52469;BME280;38381;53.688;10.776;2022-09-24T23:27:21;100937.88;;;12.57;92.83
52469;BME280;38381;53.688;10.776;2022-09-24T23:32:21;100937.00;;;12.57;93.10
52469;BME280;38381;53.688;10.776;2022-09-24T23:37:21;100940.47;;;12.57;92.75
52469;BME280;38381;53.688;10.776;2022-09-24T23:42:22;100943.94;;;12.58;92.87
52469;BME280;38381;53.688;10.776;2022-09-24T23:47:22;100934.41;;;12.58;92.29
52469;BME280;38381;53.688;10.776;2022-09-24T23:52:22;100943.06;;;12.60;92.55
52469;BME280;38381;53.688;10.776;2022-09-24T23:57:23;100937.00;;;12.58;93.16
